< < Back
Terminal Aerodrome Forecast


Current Version              Previous Versions:   1  2  3  4  5  6  7  8  9  

Terminal Aerodrome Forecast

688
FTUS42 KGSP 271730 AAB
TAFCLT
TAF AMD
KCLT 271730Z 2718/2812 34011G18KT P6SM BKN100
     FM272000 34012G20KT P6SM SCT100
     FM280200 33005KT P6SM SKC=

Latest METAR

995
SAUS70 KWBC 280400 RRD
MTRCLT
METAR KCLT 280352Z 29005KT 10SM CLR M01/M07 A3002 RMK AO2 SLP168
T10061067


USA.gov is the U.S. government's official web portal to all federal, state and local government web resources and services.